sensor_id;sensor_type;location;lat;lon;timestamp;P1;durP1;ratioP1;P2;durP2;ratioP2
10651;SDS011;5374;42.742;23.266;2022-07-19T00:01:37;4.17;;;2.90;;
10651;SDS011;5374;42.742;23.266;2022-07-19T00:04:25;3.47;;;2.83;;
10651;SDS011;5374;42.742;23.266;2022-07-19T00:07:12;3.23;;;2.73;;
10651;SDS011;5374;42.742;23.266;2022-07-19T00:09:59;5.50;;;2.60;;
10651;SDS011;5374;42.742;23.266;2022-07-19T00:12:46;4.50;;;3.20;;
10651;SDS011;5374;42.742;23.266;2022-07-19T00:15:34;3.20;;;2.90;;
10651;SDS011;5374;42.742;23.266;2022-07-19T00:18:23;5.40;;;2.80;;
10651;SDS011;5374;42.742;23.266;2022-07-19T00:21:10;5.53;;;3.17;;
10651;SDS011;5374;42.742;23.266;2022-07-19T00:23:57;3.20;;;2.90;;
10651;SDS011;5374;42.742;23.266;2022-07-19T00:26:45;4.00;;;3.10;;
10651;SDS011;5374;42.742;23.266;2022-07-19T00:29:32;3.97;;;2.30;;
10651;SDS011;5374;42.742;23.266;2022-07-19T00:32:19;3.97;;;3.10;;
10651;SDS011;5374;42.742;23.266;2022-07-19T00:35:08;7.60;;;2.90;;
10651;SDS011;5374;42.742;23.266;2022-07-19T00:37:56;4.83;;;3.27;;
10651;SDS011;5374;42.742;23.266;2022-07-19T00:40:43;5.67;;;3.20;;
10651;SDS011;5374;42.742;23.266;2022-07-19T00:43:30;3.10;;;2.73;;
10651;SDS011;5374;42.742;23.266;2022-07-19T00:46:18;2.90;;;2.50;;
10651;SDS011;5374;42.742;23.266;2022-07-19T00:49:07;3.57;;;2.67;;
10651;SDS011;5374;42.742;23.266;2022-07-19T00:51:55;3.40;;;2.37;;
10651;SDS011;5374;42.742;23.266;2022-07-19T00:54:44;2.60;;;2.10;;
10651;SDS011;5374;42.742;23.266;2022-07-19T00:57:32;3.20;;;2.10;;
10651;SDS011;5374;42.742;23.266;2022-07-19T01:00:20;2.73;;;2.30;;
10651;SDS011;5374;42.742;23.266;2022-07-19T01:03:07;3.70;;;2.63;;
10651;SDS011;5374;42.742;23.266;2022-07-19T01:05:55;2.40;;;2.20;;
10651;SDS011;5374;42.742;23.266;2022-07-19T01:08:43;3.13;;;2.60;;
10651;SDS011;5374;42.742;23.266;2022-07-19T01:11:31;4.27;;;2.30;;
10651;SDS011;5374;42.742;23.266;2022-07-19T01:14:18;3.80;;;2.40;;
10651;SDS011;5374;42.742;23.266;2022-07-19T01:17:05;3.87;;;2.50;;
10651;SDS011;5374;42.742;23.266;2022-07-19T01:19:53;2.53;;;2.20;;
10651;SDS011;5374;42.742;23.266;2022-07-19T01:22:42;3.10;;;2.60;;
10651;SDS011;5374;42.742;23.266;2022-07-19T01:25:31;3.43;;;2.77;;
10651;SDS011;5374;42.742;23.266;2022-07-19T01:28:19;3.10;;;2.70;;
10651;SDS011;5374;42.742;23.266;2022-07-19T01:31:06;2.47;;;2.27;;
10651;SDS011;5374;42.742;23.266;2022-07-19T01:33:53;2.73;;;2.40;;
10651;SDS011;5374;42.742;23.266;2022-07-19T01:36:40;3.00;;;2.37;;
10651;SDS011;5374;42.742;23.266;2022-07-19T01:39:29;2.60;;;2.40;;
10651;SDS011;5374;42.742;23.266;2022-07-19T01:42:16;2.47;;;2.20;;
10651;SDS011;5374;42.742;23.266;2022-07-19T01:45:04;3.43;;;2.37;;
10651;SDS011;5374;42.742;23.266;2022-07-19T01:47:52;3.17;;;2.37;;
10651;SDS011;5374;42.742;23.266;2022-07-19T01:50:39;2.70;;;2.00;;
10651;SDS011;5374;42.742;23.266;2022-07-19T01:53:27;2.87;;;2.33;;
10651;SDS011;5374;42.742;23.266;2022-07-19T01:56:15;3.97;;;2.33;;
10651;SDS011;5374;42.742;23.266;2022-07-19T01:59:02;4.73;;;2.60;;
10651;SDS011;5374;42.742;23.266;2022-07-19T02:01:49;4.67;;;2.40;;
10651;SDS011;5374;42.742;23.266;2022-07-19T02:04:36;3.03;;;2.10;;
10651;SDS011;5374;42.742;23.266;2022-07-19T02:07:24;3.97;;;2.40;;
10651;SDS011;5374;42.742;23.266;2022-07-19T02:10:11;3.23;;;2.60;;
10651;SDS011;5374;42.742;23.266;2022-07-19T02:12:59;2.93;;;2.63;;
10651;SDS011;5374;42.742;23.266;2022-07-19T02:15:46;3.97;;;2.40;;
10651;SDS011;5374;42.742;23.266;2022-07-19T02:18:34;3.23;;;2.93;;
10651;SDS011;5374;42.742;23.266;2022-07-19T02:21:21;5.10;;;3.00;;
10651;SDS011;5374;42.742;23.266;2022-07-19T02:24:08;2.93;;;2.63;;
10651;SDS011;5374;42.742;23.266;2022-07-19T02:26:55;4.20;;;2.57;;
10651;SDS011;5374;42.742;23.266;2022-07-19T02:29:44;3.40;;;2.77;;
10651;SDS011;5374;42.742;23.266;2022-07-19T02:32:31;4.43;;;3.00;;
10651;SDS011;5374;42.742;23.266;2022-07-19T02:35:18;3.27;;;2.87;;
10651;SDS011;5374;42.742;23.266;2022-07-19T02:38:06;4.63;;;2.50;;
10651;SDS011;5374;42.742;23.266;2022-07-19T02:40:53;3.93;;;2.67;;
10651;SDS011;5374;42.742;23.266;2022-07-19T02:43:40;3.00;;;2.70;;
10651;SDS011;5374;42.742;23.266;2022-07-19T02:46:28;3.13;;;2.83;;
10651;SDS011;5374;42.742;23.266;2022-07-19T02:49:16;3.50;;;3.20;;
10651;SDS011;5374;42.742;23.266;2022-07-19T02:52:03;4.20;;;3.80;;
10651;SDS011;5374;42.742;23.266;2022-07-19T02:54:51;3.70;;;3.40;;
10651;SDS011;5374;42.742;23.266;2022-07-19T02:57:38;5.60;;;4.00;;
10651;SDS011;5374;42.742;23.266;2022-07-19T03:00:25;3.40;;;3.00;;
10651;SDS011;5374;42.742;23.266;2022-07-19T03:03:14;4.73;;;3.00;;
10651;SDS011;5374;42.742;23.266;2022-07-19T03:06:19;5.33;;;3.00;;
10651;SDS011;5374;42.742;23.266;2022-07-19T03:09:06;3.80;;;3.40;;
10651;SDS011;5374;42.742;23.266;2022-07-19T03:11:53;3.03;;;2.73;;
10651;SDS011;5374;42.742;23.266;2022-07-19T03:14:40;3.60;;;3.30;;
10651;SDS011;5374;42.742;23.266;2022-07-19T03:17:27;4.97;;;3.67;;
10651;SDS011;5374;42.742;23.266;2022-07-19T03:20:16;4.73;;;3.73;;
10651;SDS011;5374;42.742;23.266;2022-07-19T03:23:03;5.40;;;3.80;;
10651;SDS011;5374;42.742;23.266;2022-07-19T03:25:51;6.07;;;3.30;;
10651;SDS011;5374;42.742;23.266;2022-07-19T03:28:39;5.03;;;3.83;;
10651;SDS011;5374;42.742;23.266;2022-07-19T03:31:26;4.27;;;3.87;;
10651;SDS011;5374;42.742;23.266;2022-07-19T03:34:13;6.60;;;3.90;;
10651;SDS011;5374;42.742;23.266;2022-07-19T03:37:02;5.17;;;3.53;;
10651;SDS011;5374;42.742;23.266;2022-07-19T03:39:49;6.07;;;3.30;;
10651;SDS011;5374;42.742;23.266;2022-07-19T03:42:36;4.33;;;3.70;;
10651;SDS011;5374;42.742;23.266;2022-07-19T03:45:23;4.10;;;3.70;;
10651;SDS011;5374;42.742;23.266;2022-07-19T03:48:10;5.30;;;3.70;;
10651;SDS011;5374;42.742;23.266;2022-07-19T03:50:58;4.23;;;3.50;;
10651;SDS011;5374;42.742;23.266;2022-07-19T03:53:46;5.47;;;4.07;;
10651;SDS011;5374;42.742;23.266;2022-07-19T03:56:42;4.20;;;3.80;;
10651;SDS011;5374;42.742;23.266;2022-07-19T03:59:32;5.53;;;3.93;;
10651;SDS011;5374;42.742;23.266;2022-07-19T04:02:19;4.60;;;3.77;;
10651;SDS011;5374;42.742;23.266;2022-07-19T04:05:07;5.10;;;3.30;;
10651;SDS011;5374;42.742;23.266;2022-07-19T04:07:54;5.57;;;5.03;;
10651;SDS011;5374;42.742;23.266;2022-07-19T04:10:43;8.50;;;4.63;;
10651;SDS011;5374;42.742;23.266;2022-07-19T04:13:31;7.20;;;4.70;;
10651;SDS011;5374;42.742;23.266;2022-07-19T04:16:19;5.33;;;3.90;;
10651;SDS011;5374;42.742;23.266;2022-07-19T04:19:06;4.33;;;3.40;;
10651;SDS011;5374;42.742;23.266;2022-07-19T04:21:53;4.00;;;3.60;;
10651;SDS011;5374;42.742;23.266;2022-07-19T04:24:40;4.20;;;3.30;;
10651;SDS011;5374;42.742;23.266;2022-07-19T04:27:29;8.50;;;3.93;;
10651;SDS011;5374;42.742;23.266;2022-07-19T04:30:17;4.13;;;3.43;;
10651;SDS011;5374;42.742;23.266;2022-07-19T04:33:04;5.93;;;3.50;;
10651;SDS011;5374;42.742;23.266;2022-07-19T04:35:52;7.57;;;3.70;;
10651;SDS011;5374;42.742;23.266;2022-07-19T04:38:40;8.10;;;3.90;;
10651;SDS011;5374;42.742;23.266;2022-07-19T04:41:27;3.90;;;3.50;;
10651;SDS011;5374;42.742;23.266;2022-07-19T04:44:15;5.70;;;3.27;;
10651;SDS011;5374;42.742;23.266;2022-07-19T04:47:03;4.93;;;3.63;;
10651;SDS011;5374;42.742;23.266;2022-07-19T04:49:50;6.60;;;3.13;;
10651;SDS011;5374;42.742;23.266;2022-07-19T04:52:37;3.67;;;3.20;;
10651;SDS011;5374;42.742;23.266;2022-07-19T04:55:24;7.10;;;3.37;;
10651;SDS011;5374;42.742;23.266;2022-07-19T04:58:11;6.50;;;3.53;;
10651;SDS011;5374;42.742;23.266;2022-07-19T05:01:00;4.47;;;3.47;;
10651;SDS011;5374;42.742;23.266;2022-07-19T05:03:47;7.37;;;3.13;;
10651;SDS011;5374;42.742;23.266;2022-07-19T05:06:34;7.27;;;3.60;;
10651;SDS011;5374;42.742;23.266;2022-07-19T05:09:22;5.23;;;4.03;;
10651;SDS011;5374;42.742;23.266;2022-07-19T05:12:10;4.40;;;3.67;;
10651;SDS011;5374;42.742;23.266;2022-07-19T05:14:57;7.37;;;3.97;;
10651;SDS011;5374;42.742;23.266;2022-07-19T05:17:45;9.57;;;3.40;;
10651;SDS011;5374;42.742;23.266;2022-07-19T05:20:33;4.87;;;3.03;;
10651;SDS011;5374;42.742;23.266;2022-07-19T05:23:20;4.28;;;2.80;;
10651;SDS011;5374;42.742;23.266;2022-07-19T05:26:07;3.40;;;2.90;;
10651;SDS011;5374;42.742;23.266;2022-07-19T05:28:55;4.22;;;3.40;;
10651;SDS011;5374;42.742;23.266;2022-07-19T05:31:42;3.92;;;3.28;;
10651;SDS011;5374;42.742;23.266;2022-07-19T05:34:31;3.50;;;3.13;;
10651;SDS011;5374;42.742;23.266;2022-07-19T05:37:18;4.10;;;3.22;;
10651;SDS011;5374;42.742;23.266;2022-07-19T05:40:06;8.35;;;3.50;;
10651;SDS011;5374;42.742;23.266;2022-07-19T05:42:54;3.42;;;2.90;;
10651;SDS011;5374;42.742;23.266;2022-07-19T05:45:41;2.95;;;2.72;;
10651;SDS011;5374;42.742;23.266;2022-07-19T05:48:29;6.25;;;2.95;;
10651;SDS011;5374;42.742;23.266;2022-07-19T05:51:18;3.00;;;2.53;;
10651;SDS011;5374;42.742;23.266;2022-07-19T05:54:05;5.80;;;3.00;;
10651;SDS011;5374;42.742;23.266;2022-07-19T05:56:53;8.07;;;2.78;;
10651;SDS011;5374;42.742;23.266;2022-07-19T05:59:40;6.80;;;2.60;;
10651;SDS011;5374;42.742;23.266;2022-07-19T06:02:27;4.53;;;2.47;;
10651;SDS011;5374;42.742;23.266;2022-07-19T06:05:15;6.87;;;2.53;;
10651;SDS011;5374;42.742;23.266;2022-07-19T06:08:04;6.60;;;2.57;;
10651;SDS011;5374;42.742;23.266;2022-07-19T06:10:51;5.07;;;2.43;;
10651;SDS011;5374;42.742;23.266;2022-07-19T06:13:38;3.20;;;2.20;;
10651;SDS011;5374;42.742;23.266;2022-07-19T06:16:25;7.57;;;2.40;;
10651;SDS011;5374;42.742;23.266;2022-07-19T06:19:12;5.87;;;2.63;;
10651;SDS011;5374;42.742;23.266;2022-07-19T06:22:00;2.20;;;2.00;;
10651;SDS011;5374;42.742;23.266;2022-07-19T06:24:48;2.30;;;2.00;;
10651;SDS011;5374;42.742;23.266;2022-07-19T06:27:35;3.30;;;2.00;;
10651;SDS011;5374;42.742;23.266;2022-07-19T06:30:22;3.17;;;2.03;;
10651;SDS011;5374;42.742;23.266;2022-07-19T06:33:10;4.30;;;1.87;;
10651;SDS011;5374;42.742;23.266;2022-07-19T06:36:00;6.23;;;2.50;;
10651;SDS011;5374;42.742;23.266;2022-07-19T06:38:50;4.33;;;2.10;;
10651;SDS011;5374;42.742;23.266;2022-07-19T06:41:43;2.63;;;2.03;;
10651;SDS011;5374;42.742;23.266;2022-07-19T06:44:32;2.87;;;2.30;;
10651;SDS011;5374;42.742;23.266;2022-07-19T06:47:19;3.70;;;2.10;;
10651;SDS011;5374;42.742;23.266;2022-07-19T06:50:09;4.10;;;2.20;;
10651;SDS011;5374;42.742;23.266;2022-07-19T06:52:57;4.20;;;2.23;;
10651;SDS011;5374;42.742;23.266;2022-07-19T06:55:44;3.50;;;1.90;;
10651;SDS011;5374;42.742;23.266;2022-07-19T06:58:33;7.20;;;2.63;;
10651;SDS011;5374;42.742;23.266;2022-07-19T07:01:20;5.97;;;2.47;;
10651;SDS011;5374;42.742;23.266;2022-07-19T07:04:07;3.77;;;2.30;;
10651;SDS011;5374;42.742;23.266;2022-07-19T07:06:54;2.10;;;1.90;;
10651;SDS011;5374;42.742;23.266;2022-07-19T07:09:41;4.20;;;2.20;;
10651;SDS011;5374;42.742;23.266;2022-07-19T07:12:29;2.13;;;1.90;;
10651;SDS011;5374;42.742;23.266;2022-07-19T07:15:17;3.97;;;2.10;;
10651;SDS011;5374;42.742;23.266;2022-07-19T07:18:04;3.83;;;2.13;;
10651;SDS011;5374;42.742;23.266;2022-07-19T07:20:52;3.63;;;2.00;;
10651;SDS011;5374;42.742;23.266;2022-07-19T07:23:40;7.07;;;2.33;;
10651;SDS011;5374;42.742;23.266;2022-07-19T07:26:27;4.07;;;1.90;;
10651;SDS011;5374;42.742;23.266;2022-07-19T07:29:14;2.63;;;2.00;;
10651;SDS011;5374;42.742;23.266;2022-07-19T07:32:03;3.13;;;2.27;;
10651;SDS011;5374;42.742;23.266;2022-07-19T07:34:50;5.60;;;2.33;;
10651;SDS011;5374;42.742;23.266;2022-07-19T07:37:38;2.13;;;1.93;;
10651;SDS011;5374;42.742;23.266;2022-07-19T07:40:25;3.73;;;2.00;;
10651;SDS011;5374;42.742;23.266;2022-07-19T07:43:12;4.13;;;1.97;;
10651;SDS011;5374;42.742;23.266;2022-07-19T07:46:01;2.70;;;2.20;;
10651;SDS011;5374;42.742;23.266;2022-07-19T07:48:50;2.33;;;2.13;;
10651;SDS011;5374;42.742;23.266;2022-07-19T07:51:39;4.47;;;2.20;;
10651;SDS011;5374;42.742;23.266;2022-07-19T07:54:27;1.97;;;1.80;;
10651;SDS011;5374;42.742;23.266;2022-07-19T07:57:14;2.43;;;2.10;;
10651;SDS011;5374;42.742;23.266;2022-07-19T08:00:02;3.27;;;2.00;;
10651;SDS011;5374;42.742;23.266;2022-07-19T08:02:49;2.50;;;1.97;;
10651;SDS011;5374;42.742;23.266;2022-07-19T08:05:38;2.90;;;2.10;;
10651;SDS011;5374;42.742;23.266;2022-07-19T08:08:25;2.50;;;2.03;;
10651;SDS011;5374;42.742;23.266;2022-07-19T08:11:13;3.13;;;2.10;;
10651;SDS011;5374;42.742;23.266;2022-07-19T08:14:00;2.20;;;2.00;;
10651;SDS011;5374;42.742;23.266;2022-07-19T08:16:47;2.10;;;1.90;;
10651;SDS011;5374;42.742;23.266;2022-07-19T08:19:34;2.10;;;1.87;;
10651;SDS011;5374;42.742;23.266;2022-07-19T08:22:23;4.17;;;1.90;;
10651;SDS011;5374;42.742;23.266;2022-07-19T08:25:10;1.97;;;1.80;;
10651;SDS011;5374;42.742;23.266;2022-07-19T08:28:00;2.40;;;1.87;;
10651;SDS011;5374;42.742;23.266;2022-07-19T08:30:47;1.90;;;1.80;;
10651;SDS011;5374;42.742;23.266;2022-07-19T08:33:36;2.30;;;1.87;;
10651;SDS011;5374;42.742;23.266;2022-07-19T08:36:24;4.03;;;2.20;;
10651;SDS011;5374;42.742;23.266;2022-07-19T08:39:13;3.33;;;2.00;;
10651;SDS011;5374;42.742;23.266;2022-07-19T08:42:00;2.87;;;2.00;;
10651;SDS011;5374;42.742;23.266;2022-07-19T08:44:47;3.37;;;1.90;;
10651;SDS011;5374;42.742;23.266;2022-07-19T08:47:38;2.67;;;1.80;;
10651;SDS011;5374;42.742;23.266;2022-07-19T08:50:25;2.30;;;1.97;;
10651;SDS011;5374;42.742;23.266;2022-07-19T08:53:13;3.70;;;2.10;;
10651;SDS011;5374;42.742;23.266;2022-07-19T08:56:02;2.23;;;1.97;;
10651;SDS011;5374;42.742;23.266;2022-07-19T08:59:10;1.97;;;1.87;;
10651;SDS011;5374;42.742;23.266;2022-07-19T09:01:58;3.57;;;2.10;;
10651;SDS011;5374;42.742;23.266;2022-07-19T09:04:48;3.87;;;2.10;;
10651;SDS011;5374;42.742;23.266;2022-07-19T09:07:58;2.07;;;1.90;;
10651;SDS011;5374;42.742;23.266;2022-07-19T09:10:47;2.40;;;2.20;;
10651;SDS011;5374;42.742;23.266;2022-07-19T09:13:51;3.40;;;1.97;;
10651;SDS011;5374;42.742;23.266;2022-07-19T09:16:48;2.40;;;2.10;;
10651;SDS011;5374;42.742;23.266;2022-07-19T09:19:37;2.00;;;1.80;;
10651;SDS011;5374;42.742;23.266;2022-07-19T09:22:25;4.27;;;2.93;;
10651;SDS011;5374;42.742;23.266;2022-07-19T09:25:13;3.10;;;2.80;;
10651;SDS011;5374;42.742;23.266;2022-07-19T09:28:20;2.40;;;2.20;;
10651;SDS011;5374;42.742;23.266;2022-07-19T09:31:10;7.10;;;2.07;;
10651;SDS011;5374;42.742;23.266;2022-07-19T09:33:58;2.13;;;1.93;;
10651;SDS011;5374;42.742;23.266;2022-07-19T09:36:46;2.20;;;2.00;;
10651;SDS011;5374;42.742;23.266;2022-07-19T09:39:33;4.27;;;2.33;;
10651;SDS011;5374;42.742;23.266;2022-07-19T09:42:21;3.00;;;2.00;;
10651;SDS011;5374;42.742;23.266;2022-07-19T09:45:11;2.17;;;1.93;;
10651;SDS011;5374;42.742;23.266;2022-07-19T09:48:00;2.50;;;2.30;;
10651;SDS011;5374;42.742;23.266;2022-07-19T09:50:49;2.63;;;2.43;;
10651;SDS011;5374;42.742;23.266;2022-07-19T09:53:36;4.17;;;2.77;;
10651;SDS011;5374;42.742;23.266;2022-07-19T09:56:24;2.77;;;2.47;;
10651;SDS011;5374;42.742;23.266;2022-07-19T09:59:14;2.20;;;2.00;;
10651;SDS011;5374;42.742;23.266;2022-07-19T10:02:01;2.40;;;2.20;;
10651;SDS011;5374;42.742;23.266;2022-07-19T10:04:51;2.27;;;2.07;;
10651;SDS011;5374;42.742;23.266;2022-07-19T10:07:39;2.63;;;1.97;;
10651;SDS011;5374;42.742;23.266;2022-07-19T10:10:27;2.93;;;2.20;;
10651;SDS011;5374;42.742;23.266;2022-07-19T10:13:17;2.50;;;2.00;;
10651;SDS011;5374;42.742;23.266;2022-07-19T10:16:05;2.30;;;2.07;;
10651;SDS011;5374;42.742;23.266;2022-07-19T10:19:01;2.43;;;2.23;;
10651;SDS011;5374;42.742;23.266;2022-07-19T10:21:53;2.40;;;2.20;;
10651;SDS011;5374;42.742;23.266;2022-07-19T10:24:42;2.20;;;2.00;;
10651;SDS011;5374;42.742;23.266;2022-07-19T10:27:35;2.40;;;1.90;;
10651;SDS011;5374;42.742;23.266;2022-07-19T10:30:25;2.10;;;1.80;;
10651;SDS011;5374;42.742;23.266;2022-07-19T10:33:26;2.43;;;1.90;;
10651;SDS011;5374;42.742;23.266;2022-07-19T10:36:31;3.13;;;2.10;;
10651;SDS011;5374;42.742;23.266;2022-07-19T10:39:28;4.63;;;2.30;;
10651;SDS011;5374;42.742;23.266;2022-07-19T10:42:17;2.40;;;2.20;;
10651;SDS011;5374;42.742;23.266;2022-07-19T10:45:09;4.30;;;2.00;;
10651;SDS011;5374;42.742;23.266;2022-07-19T10:47:59;2.40;;;2.20;;
10651;SDS011;5374;42.742;23.266;2022-07-19T10:50:54;2.40;;;2.20;;
10651;SDS011;5374;42.742;23.266;2022-07-19T10:57:05;2.23;;;2.07;;
10651;SDS011;5374;42.742;23.266;2022-07-19T10:59:52;3.13;;;2.83;;
10651;SDS011;5374;42.742;23.266;2022-07-19T11:02:39;2.20;;;1.97;;
10651;SDS011;5374;42.742;23.266;2022-07-19T11:05:27;3.50;;;2.20;;
10651;SDS011;5374;42.742;23.266;2022-07-19T11:08:15;2.20;;;2.00;;
10651;SDS011;5374;42.742;23.266;2022-07-19T11:11:04;2.33;;;2.13;;
10651;SDS011;5374;42.742;23.266;2022-07-19T11:13:55;2.33;;;2.13;;
10651;SDS011;5374;42.742;23.266;2022-07-19T11:16:44;2.20;;;2.00;;
10651;SDS011;5374;42.742;23.266;2022-07-19T11:19:32;2.80;;;1.90;;
10651;SDS011;5374;42.742;23.266;2022-07-19T11:22:19;2.10;;;1.90;;
10651;SDS011;5374;42.742;23.266;2022-07-19T11:25:07;3.40;;;1.90;;
10651;SDS011;5374;42.742;23.266;2022-07-19T11:27:56;2.80;;;2.20;;
10651;SDS011;5374;42.742;23.266;2022-07-19T11:30:45;3.73;;;2.07;;
10651;SDS011;5374;42.742;23.266;2022-07-19T11:33:33;2.37;;;2.00;;
10651;SDS011;5374;42.742;23.266;2022-07-19T11:36:20;4.13;;;2.10;;
10651;SDS011;5374;42.742;23.266;2022-07-19T11:39:07;2.20;;;2.00;;
10651;SDS011;5374;42.742;23.266;2022-07-19T11:41:54;2.30;;;2.10;;
10651;SDS011;5374;42.742;23.266;2022-07-19T11:44:41;2.30;;;2.00;;
10651;SDS011;5374;42.742;23.266;2022-07-19T11:47:33;2.50;;;2.10;;
10651;SDS011;5374;42.742;23.266;2022-07-19T11:50:21;4.43;;;1.90;;
10651;SDS011;5374;42.742;23.266;2022-07-19T11:53:09;1.77;;;1.67;;
10651;SDS011;5374;42.742;23.266;2022-07-19T11:55:56;4.03;;;1.80;;
10651;SDS011;5374;42.742;23.266;2022-07-19T11:58:44;1.77;;;1.63;;
10651;SDS011;5374;42.742;23.266;2022-07-19T12:01:31;1.83;;;1.73;;
10651;SDS011;5374;42.742;23.266;2022-07-19T12:04:21;2.83;;;1.77;;
10651;SDS011;5374;42.742;23.266;2022-07-19T12:07:09;2.97;;;2.10;;
10651;SDS011;5374;42.742;23.266;2022-07-19T12:09:56;2.03;;;1.80;;
10651;SDS011;5374;42.742;23.266;2022-07-19T12:12:43;2.80;;;1.80;;
10651;SDS011;5374;42.742;23.266;2022-07-19T12:15:43;4.70;;;2.03;;
10651;SDS011;5374;42.742;23.266;2022-07-19T12:18:42;1.87;;;1.60;;
10651;SDS011;5374;42.742;23.266;2022-07-19T12:21:41;3.23;;;1.70;;
10651;SDS011;5374;42.742;23.266;2022-07-19T12:24:29;2.67;;;2.00;;
10651;SDS011;5374;42.742;23.266;2022-07-19T12:27:17;3.40;;;2.20;;
10651;SDS011;5374;42.742;23.266;2022-07-19T12:30:06;5.53;;;2.27;;
10651;SDS011;5374;42.742;23.266;2022-07-19T12:33:08;2.17;;;1.90;;
10651;SDS011;5374;42.742;23.266;2022-07-19T12:35:57;3.10;;;2.10;;
10651;SDS011;5374;42.742;23.266;2022-07-19T12:38:46;1.77;;;1.67;;
10651;SDS011;5374;42.742;23.266;2022-07-19T12:41:33;2.60;;;2.00;;
10651;SDS011;5374;42.742;23.266;2022-07-19T12:44:20;2.17;;;1.83;;
10651;SDS011;5374;42.742;23.266;2022-07-19T12:47:07;2.37;;;1.90;;
10651;SDS011;5374;42.742;23.266;2022-07-19T12:49:54;2.87;;;1.90;;
10651;SDS011;5374;42.742;23.266;2022-07-19T12:52:41;2.10;;;1.90;;
10651;SDS011;5374;42.742;23.266;2022-07-19T12:55:31;2.67;;;1.60;;
10651;SDS011;5374;42.742;23.266;2022-07-19T12:58:19;1.93;;;1.80;;
10651;SDS011;5374;42.742;23.266;2022-07-19T13:01:20;2.43;;;1.70;;
10651;SDS011;5374;42.742;23.266;2022-07-19T13:04:07;3.20;;;1.77;;
10651;SDS011;5374;42.742;23.266;2022-07-19T13:06:55;2.00;;;1.87;;
10651;SDS011;5374;42.742;23.266;2022-07-19T13:09:42;2.03;;;1.60;;
10651;SDS011;5374;42.742;23.266;2022-07-19T13:12:30;1.70;;;1.60;;
10651;SDS011;5374;42.742;23.266;2022-07-19T13:15:18;1.97;;;1.80;;
10651;SDS011;5374;42.742;23.266;2022-07-19T13:18:05;1.70;;;1.60;;
10651;SDS011;5374;42.742;23.266;2022-07-19T13:20:52;1.43;;;1.33;;
10651;SDS011;5374;42.742;23.266;2022-07-19T13:23:39;2.23;;;1.87;;
10651;SDS011;5374;42.742;23.266;2022-07-19T13:26:26;1.53;;;1.43;;
10651;SDS011;5374;42.742;23.266;2022-07-19T13:29:15;3.83;;;1.70;;
10651;SDS011;5374;42.742;23.266;2022-07-19T13:32:03;2.23;;;1.70;;
10651;SDS011;5374;42.742;23.266;2022-07-19T13:34:53;2.10;;;1.70;;
10651;SDS011;5374;42.742;23.266;2022-07-19T13:37:40;2.73;;;1.57;;
10651;SDS011;5374;42.742;23.266;2022-07-19T13:40:27;1.80;;;1.70;;
10651;SDS011;5374;42.742;23.266;2022-07-19T13:43:14;3.23;;;1.60;;
10651;SDS011;5374;42.742;23.266;2022-07-19T13:46:03;1.70;;;1.60;;
10651;SDS011;5374;42.742;23.266;2022-07-19T13:48:50;2.00;;;1.60;;
10651;SDS011;5374;42.742;23.266;2022-07-19T13:51:37;2.83;;;1.60;;
10651;SDS011;5374;42.742;23.266;2022-07-19T13:54:25;3.13;;;1.50;;
10651;SDS011;5374;42.742;23.266;2022-07-19T13:57:12;1.93;;;1.40;;
10651;SDS011;5374;42.742;23.266;2022-07-19T13:59:59;2.07;;;1.87;;
10651;SDS011;5374;42.742;23.266;2022-07-19T14:02:48;1.73;;;1.63;;
10651;SDS011;5374;42.742;23.266;2022-07-19T14:05:35;2.73;;;1.60;;
10651;SDS011;5374;42.742;23.266;2022-07-19T14:08:24;2.43;;;1.90;;
10651;SDS011;5374;42.742;23.266;2022-07-19T14:11:11;2.23;;;1.50;;
10651;SDS011;5374;42.742;23.266;2022-07-19T14:14:00;2.40;;;1.50;;
10651;SDS011;5374;42.742;23.266;2022-07-19T14:16:47;3.40;;;1.70;;
10651;SDS011;5374;42.742;23.266;2022-07-19T14:19:36;2.23;;;1.50;;
10651;SDS011;5374;42.742;23.266;2022-07-19T14:22:23;1.80;;;1.53;;
10651;SDS011;5374;42.742;23.266;2022-07-19T14:25:10;4.00;;;1.40;;
10651;SDS011;5374;42.742;23.266;2022-07-19T14:27:57;2.47;;;1.50;;
10651;SDS011;5374;42.742;23.266;2022-07-19T14:30:44;4.37;;;1.67;;
10651;SDS011;5374;42.742;23.266;2022-07-19T14:33:32;2.17;;;1.40;;
10651;SDS011;5374;42.742;23.266;2022-07-19T14:36:20;1.60;;;1.50;;
10651;SDS011;5374;42.742;23.266;2022-07-19T14:39:08;3.83;;;1.50;;
10651;SDS011;5374;42.742;23.266;2022-07-19T14:41:56;2.17;;;1.60;;
10651;SDS011;5374;42.742;23.266;2022-07-19T14:44:44;1.67;;;1.40;;
10651;SDS011;5374;42.742;23.266;2022-07-19T14:47:31;2.80;;;1.70;;
10651;SDS011;5374;42.742;23.266;2022-07-19T14:50:18;1.77;;;1.47;;
10651;SDS011;5374;42.742;23.266;2022-07-19T14:53:08;1.60;;;1.50;;
10651;SDS011;5374;42.742;23.266;2022-07-19T14:55:56;3.00;;;1.53;;
10651;SDS011;5374;42.742;23.266;2022-07-19T14:58:43;2.70;;;1.50;;
10651;SDS011;5374;42.742;23.266;2022-07-19T15:01:31;2.03;;;1.70;;
10651;SDS011;5374;42.742;23.266;2022-07-19T15:04:18;1.93;;;1.50;;
10651;SDS011;5374;42.742;23.266;2022-07-19T15:07:05;1.60;;;1.50;;
10651;SDS011;5374;42.742;23.266;2022-07-19T15:09:54;1.60;;;1.40;;
10651;SDS011;5374;42.742;23.266;2022-07-19T15:12:41;2.23;;;1.60;;
10651;SDS011;5374;42.742;23.266;2022-07-19T15:15:28;1.87;;;1.60;;
10651;SDS011;5374;42.742;23.266;2022-07-19T15:18:15;2.30;;;1.30;;
10651;SDS011;5374;42.742;23.266;2022-07-19T15:21:03;2.13;;;1.77;;
10651;SDS011;5374;42.742;23.266;2022-07-19T15:23:50;2.57;;;1.60;;
10651;SDS011;5374;42.742;23.266;2022-07-19T15:26:39;1.43;;;1.33;;
10651;SDS011;5374;42.742;23.266;2022-07-19T15:29:26;2.80;;;1.60;;
10651;SDS011;5374;42.742;23.266;2022-07-19T15:32:13;2.07;;;1.40;;
10651;SDS011;5374;42.742;23.266;2022-07-19T15:35:00;2.03;;;1.50;;
10651;SDS011;5374;42.742;23.266;2022-07-19T15:37:48;1.77;;;1.47;;
10651;SDS011;5374;42.742;23.266;2022-07-19T15:40:35;2.30;;;1.77;;
10651;SDS011;5374;42.742;23.266;2022-07-19T15:43:23;2.60;;;1.90;;
10651;SDS011;5374;42.742;23.266;2022-07-19T15:46:11;1.70;;;1.50;;
10651;SDS011;5374;42.742;23.266;2022-07-19T15:48:59;4.17;;;1.70;;
10651;SDS011;5374;42.742;23.266;2022-07-19T15:51:47;1.70;;;1.40;;
10651;SDS011;5374;42.742;23.266;2022-07-19T15:54:35;1.73;;;1.27;;
10651;SDS011;5374;42.742;23.266;2022-07-19T15:57:22;2.30;;;1.60;;
10651;SDS011;5374;42.742;23.266;2022-07-19T16:00:11;1.50;;;1.40;;
10651;SDS011;5374;42.742;23.266;2022-07-19T16:02:59;1.60;;;1.50;;
10651;SDS011;5374;42.742;23.266;2022-07-19T16:05:46;1.90;;;1.37;;
10651;SDS011;5374;42.742;23.266;2022-07-19T16:08:34;2.73;;;1.83;;
10651;SDS011;5374;42.742;23.266;2022-07-19T16:11:22;4.03;;;1.60;;
10651;SDS011;5374;42.742;23.266;2022-07-19T16:14:10;1.90;;;1.40;;
10651;SDS011;5374;42.742;23.266;2022-07-19T16:16:58;1.50;;;1.30;;
10651;SDS011;5374;42.742;23.266;2022-07-19T16:19:45;2.20;;;1.40;;
10651;SDS011;5374;42.742;23.266;2022-07-19T16:22:32;1.50;;;1.30;;
10651;SDS011;5374;42.742;23.266;2022-07-19T16:25:20;2.27;;;1.70;;
10651;SDS011;5374;42.742;23.266;2022-07-19T16:28:07;1.57;;;1.27;;
10651;SDS011;5374;42.742;23.266;2022-07-19T16:30:54;2.70;;;1.50;;
10651;SDS011;5374;42.742;23.266;2022-07-19T16:33:43;1.83;;;1.50;;
10651;SDS011;5374;42.742;23.266;2022-07-19T16:36:30;3.73;;;1.87;;
10651;SDS011;5374;42.742;23.266;2022-07-19T16:39:18;1.97;;;1.50;;
10651;SDS011;5374;42.742;23.266;2022-07-19T16:42:06;2.20;;;2.00;;
10651;SDS011;5374;42.742;23.266;2022-07-19T16:44:53;2.50;;;1.60;;
10651;SDS011;5374;42.742;23.266;2022-07-19T16:47:40;1.83;;;1.60;;
10651;SDS011;5374;42.742;23.266;2022-07-19T16:50:29;1.90;;;1.40;;
10651;SDS011;5374;42.742;23.266;2022-07-19T16:53:16;1.90;;;1.60;;
10651;SDS011;5374;42.742;23.266;2022-07-19T16:56:04;2.50;;;2.00;;
10651;SDS011;5374;42.742;23.266;2022-07-19T16:58:51;3.30;;;1.97;;